| time (UTC) | temp F | wind direction | speed MPH | gust MPH | rain 1hr in | rain 24hr in | rain mn in | humidity % | barometer mb |
| 20260509184355 | 59 | 0 | 0.0 | 0.0 | 0.00 | 0.00 | 0.00 | 13 | 943.1 |
| 20260509182855 | 57 | 0 | 0.0 | 0.0 | 0.00 | 0.00 | 0.00 | 13 | 943.5 |
| 20260509181355 | 57 | 0 | 0.0 | 0.0 | 0.00 | 0.00 | 0.00 | 10 | 943.7 |
| 20260509175855 | 57 | 0 | 0.0 | 0.0 | 0.00 | 0.00 | 0.00 | 10 | 944.0 |
| 20260509174355 | 57 | 0 | 0.0 | 0.0 | 0.00 | 0.00 | 0.00 | 10 | 944.1 |
| 20260509172854 | 57 | 0 | 0.0 | 0.0 | 0.00 | 0.00 | 0.00 | 10 | 944.3 |
| 20260509171354 | 55 | 0 | 0.0 | 0.0 | 0.00 | 0.00 | 0.00 | 15 | 944.4 |
| 20260509165854 | 55 | 0 | 0.0 | 0.0 | 0.00 | 0.00 | 0.00 | 15 | 944.7 |
| 20260509164355 | 55 | 0 | 0.0 | 0.0 | 0.00 | 0.00 | 0.00 | 16 | 944.9 |
| 20260509162855 | 54 | 0 | 0.0 | 0.0 | 0.00 | 0.00 | 0.00 | 16 | 945.3 |
| 20260509161355 | 54 | 0 | 0.0 | 0.0 | 0.00 | 0.00 | 0.00 | 17 | 945.6 |
| 20260509155854 | 52 | 0 | 0.0 | 0.0 | 0.00 | 0.00 | 0.00 | 18 | 945.9 |
| 20260509154354 | 52 | 0 | 0.0 | 0.0 | 0.00 | 0.00 | 0.00 | 18 | 946.1 |
| 20260509152854 | 52 | 0 | 0.0 | 0.0 | 0.00 | 0.00 | 0.00 | 20 | 946.3 |
| 20260509151354 | 50 | 0 | 0.0 | 0.0 | 0.00 | 0.00 | 0.00 | 20 | 946.3 |
| 20260509145854 | 50 | 0 | 0.0 | 0.0 | 0.00 | 0.00 | 0.00 | 20 | 946.5 |
| 20260509144355 | 50 | 0 | 0.0 | 0.0 | 0.00 | 0.00 | 0.00 | 20 | 946.6 |
| 20260509142855 | 50 | 0 | 0.0 | 0.0 | 0.00 | 0.00 | 0.00 | 20 | 946.6 |
| 20260509141354 | 50 | 0 | 0.0 | 0.0 | 0.00 | 0.00 | 0.00 | 20 | 946.7 |
| 20260509135854 | 48 | 0 | 0.0 | 0.0 | 0.00 | 0.00 | 0.00 | 21 | 946.7 |
| 20260509134355 | 48 | 0 | 0.0 | 0.0 | 0.00 | 0.00 | 0.00 | 21 | 946.8 |
| 20260509132855 | 48 | 0 | 0.0 | 0.0 | 0.00 | 0.00 | 0.00 | 22 | 946.6 |
| 20260509131354 | 48 | 0 | 0.0 | 0.0 | 0.00 | 0.00 | 0.00 | 22 | 946.6 |
| 20260509125854 | 46 | 0 | 0.0 | 0.0 | 0.00 | 0.00 | 0.00 | 23 | 946.5 |
| 20260509124354 | 46 | 0 | 0.0 | 0.0 | 0.00 | 0.00 | 0.00 | 23 | 946.3 |
| 20260509122855 | 46 | 0 | 0.0 | 0.0 | 0.00 | 0.00 | 0.00 | 23 | 946.0 |
| 20260509121354 | 46 | 0 | 0.0 | 0.0 | 0.00 | 0.00 | 0.00 | 24 | 945.7 |
| 20260509115854 | 46 | 0 | 0.0 | 0.0 | 0.00 | 0.00 | 0.00 | 24 | 945.5 |
| 20260509114354 | 45 | 0 | 0.0 | 0.0 | 0.00 | 0.00 | 0.00 | 25 | 945.3 |
| 20260509112854 | 46 | 0 | 0.0 | 0.0 | 0.00 | 0.00 | 0.00 | 25 | 945.2 |
| 20260509111354 | 45 | 0 | 0.0 | 0.0 | 0.00 | 0.00 | 0.00 | 25 | 944.9 |
| 20260509111348 | 45 | 0 | 0.0 | 0.0 | 0.00 | 0.00 | 0.00 | 25 | 944.8 |
| 20260509105848 | 45 | 0 | 0.0 | 0.0 | 0.00 | 0.00 | 0.00 | 25 | 944.8 |
| 20260509104348 | 45 | 0 | 0.0 | 0.0 | 0.00 | 0.00 | 0.00 | 25 | 944.6 |
| 20260509102848 | 45 | 0 | 0.0 | 0.0 | 0.00 | 0.00 | 0.00 | 25 | 944.5 |
| 20260509101348 | 45 | 0 | 0.0 | 0.0 | 0.00 | 0.00 | 0.00 | 25 | 944.6 |
| 20260509095848 | 46 | 0 | 0.0 | 0.0 | 0.00 | 0.00 | 0.00 | 25 | 944.6 |
| 20260509094348 | 46 | 0 | 0.0 | 0.0 | 0.00 | 0.00 | 0.00 | 25 | 944.2 |
| 20260509092848 | 46 | 0 | 0.0 | 0.0 | 0.00 | 0.00 | 0.00 | 25 | 944.0 |
| 20260509091348 | 46 | 0 | 0.0 | 0.0 | 0.00 | 0.00 | 0.00 | 25 | 943.9 |
| 20260509085848 | 46 | 0 | 0.0 | 0.0 | 0.00 | 0.00 | 0.00 | 24 | 943.6 |
| 20260509084348 | 46 | 0 | 0.0 | 0.0 | 0.00 | 0.00 | 0.00 | 25 | 943.5 |
| 20260509082847 | 46 | 0 | 0.0 | 0.0 | 0.00 | 0.00 | 0.00 | 24 | 943.6 |
| 20260509081348 | 46 | 0 | 0.0 | 0.0 | 0.00 | 0.00 | 0.00 | 24 | 943.5 |
| 20260509075847 | 46 | 0 | 0.0 | 0.0 | 0.00 | 0.00 | 0.00 | 25 | 943.3 |
| 20260509074348 | 46 | 0 | 0.0 | 0.0 | 0.00 | 0.00 | 0.00 | 25 | 943.5 |
| 20260509072848 | 46 | 0 | 0.0 | 0.0 | 0.00 | 0.00 | 0.00 | 25 | 943.6 |
| 20260509071347 | 46 | 0 | 0.0 | 0.0 | 0.00 | 0.00 | 0.00 | 25 | 943.3 |
| 20260509065848 | 46 | 0 | 0.0 | 0.0 | 0.00 | 0.00 | 0.00 | 25 | 943.4 |
| 20260509064348 | 46 | 0 | 0.0 | 0.0 | 0.00 | 0.00 | 0.00 | 25 | 943.4 |
| 20260509062848 | 46 | 0 | 0.0 | 0.0 | 0.00 | 0.00 | 0.00 | 25 | 943.3 |
| 20260509061348 | 48 | 0 | 0.0 | 0.0 | 0.00 | 0.00 | 0.00 | 25 | 943.3 |
| 20260509054348 | 50 | 0 | 0.0 | 0.0 | 0.00 | 0.00 | 0.00 | 22 | 943.3 |
| 20260509052847 | 50 | 0 | 0.0 | 0.0 | 0.00 | 0.00 | 0.00 | 22 | 943.1 |
| 20260509051347 | 48 | 0 | 0.0 | 0.0 | 0.00 | 0.00 | 0.00 | 25 | 942.8 |
| 20260509045847 | 48 | 0 | 0.0 | 0.0 | 0.00 | 0.00 | 0.00 | 25 | 942.7 |
| 20260509044347 | 48 | 0 | 0.0 | 0.0 | 0.00 | 0.00 | 0.00 | 25 | 942.2 |
| 20260509042847 | 48 | 0 | 0.0 | 0.0 | 0.00 | 0.00 | 0.00 | 25 | 941.9 |
| 20260509041347 | 48 | 0 | 0.0 | 0.0 | 0.00 | 0.00 | 0.00 | 25 | 941.7 |
| 20260509035847 | 48 | 0 | 0.0 | 0.0 | 0.00 | 0.00 | 0.00 | 25 | 941.8 |
| 20260509034347 | 46 | 0 | 0.0 | 0.0 | 0.00 | 0.00 | 0.00 | 25 | 942.0 |
| 20260509032847 | 46 | 0 | 0.0 | 0.0 | 0.00 | 0.00 | 0.00 | 25 | 941.9 |
| 20260509031348 | 48 | 0 | 0.0 | 0.0 | 0.00 | 0.00 | 0.00 | 25 | 942.1 |
| 20260509025847 | 52 | 0 | 0.0 | 0.0 | 0.00 | 0.00 | 0.00 | 21 | 942.3 |
| 20260509024348 | 52 | 0 | 0.0 | 0.0 | 0.00 | 0.00 | 0.00 | 22 | 942.1 |
| 20260509022847 | 52 | 0 | 0.0 | 0.0 | 0.00 | 0.00 | 0.00 | 23 | 941.8 |
| 20260509021347 | 52 | 0 | 0.0 | 0.0 | 0.00 | 0.00 | 0.00 | 22 | 941.8 |
| 20260509015847 | 52 | 0 | 0.0 | 0.0 | 0.00 | 0.00 | 0.00 | 22 | 941.8 |
| 20260509014347 | 52 | 0 | 0.0 | 0.0 | 0.00 | 0.00 | 0.00 | 22 | 941.6 |
| 20260509012847 | 52 | 0 | 0.0 | 0.0 | 0.00 | 0.00 | 0.00 | 21 | 941.2 |
| 20260509011347 | 54 | 0 | 0.0 | 0.0 | 0.00 | 0.00 | 0.00 | 22 | 941.0 |
| 20260509004347 | 52 | 0 | 0.0 | 0.0 | 0.00 | 0.00 | 0.00 | 23 | 940.6 |
| 20260509002847 | 52 | 0 | 0.0 | 0.0 | 0.00 | 0.00 | 0.00 | 24 | 940.0 |
| 20260509001347 | 54 | 0 | 0.0 | 0.0 | 0.00 | 0.00 | 0.00 | 21 | 940.1 |
| 20260508235847 | 54 | 0 | 0.0 | 0.0 | 0.00 | 0.00 | 0.00 | 21 | 939.6 |
| 20260508234347 | 54 | 0 | 0.0 | 0.0 | 0.00 | 0.00 | 0.00 | 20 | 939.3 |
| 20260508232847 | 52 | 0 | 0.0 | 0.0 | 0.00 | 0.00 | 0.00 | 21 | 938.7 |
| 20260508231347 | 52 | 0 | 0.0 | 0.0 | 0.00 | 0.00 | 0.00 | 21 | 938.0 |
| 20260508225847 | 52 | 0 | 0.0 | 0.0 | 0.00 | 0.00 | 0.00 | 22 | 937.8 |
| 20260508224347 | 52 | 0 | 0.0 | 0.0 | 0.00 | 0.00 | 0.00 | 22 | 937.2 |
| 20260508222847 | 52 | 0 | 0.0 | 0.0 | 0.00 | 0.00 | 0.00 | 23 | 936.7 |
| 20260508221347 | 52 | 0 | 0.0 | 0.0 | 0.00 | 0.00 | 0.00 | 22 | 936.1 |
| 20260508215847 | 52 | 0 | 0.0 | 0.0 | 0.00 | 0.00 | 0.00 | 23 | 935.4 |
| 20260508214347 | 52 | 0 | 0.0 | 0.0 | 0.00 | 0.00 | 0.00 | 23 | 934.9 |
| 20260508212847 | 52 | 0 | 0.0 | 0.0 | 0.00 | 0.00 | 0.00 | 23 | 934.4 |
| 20260508211347 | 52 | 0 | 0.0 | 0.0 | 0.00 | 0.00 | 0.00 | 23 | 933.9 |
| 20260508205846 | 55 | 0 | 0.0 | 0.0 | 0.00 | 0.00 | 0.00 | 20 | 933.3 |
| 20260508204347 | 59 | 0 | 0.0 | 0.0 | 0.00 | 0.00 | 0.00 | 13 | 932.7 |
| 20260508202847 | 61 | 0 | 0.0 | 0.0 | 0.00 | 0.00 | 0.00 | 8 | 931.8 |
| 20260508201347 | 63 | 0 | 0.0 | 0.0 | 0.00 | 0.00 | 0.00 | 8 | 930.9 |
| 20260508195846 | 64 | 0 | 0.0 | 0.0 | 0.00 | 0.00 | 0.00 | 5 | 929.9 |
| 20260508194346 | 66 | 0 | 0.0 | 0.0 | 0.00 | 0.00 | 0.00 | 5 | 929.4 |
| 20260508192846 | 66 | 0 | 0.0 | 0.0 | 0.00 | 0.00 | 0.00 | 5 | 928.6 |
| 20260508191347 | 68 | 0 | 0.0 | 0.0 | 0.00 | 0.00 | 0.00 | 5 | 928.6 |
| 20260508185838 | 66 | 0 | 0.0 | 0.0 | 0.00 | 0.00 | 0.00 | 5 | 928.4 |